KFWA/FWA METAR and TAF weather

Enter ICAO airport designator
Station Type Date Time Source
KFWA METAR 2019/06/20 07:20 UTC NOAA

KFWA 200720Z 10004KT 3SM -RA BR BKN004 BKN023 OVC050 20/19 A2956 RMK AO2 RAE03B05 P0012 T02000189 $


Station Type Date Time Source
KFWA Decoded METAR 2019/06/20 07:20 UTC NOAA

FORT WAYNE INTERNATIONAL, IN, United States (KFWA) 41-00N 85-12W 248M
Jun 20, 2019 - 03:20 AM EDT / 2019.06.20 0720 UTC
Wind: from the E (100 degrees) at 5 MPH (4 KT):0
Visibility: 3 mile(s):0
Sky conditions: overcast
Weather: light rain; mist
Precipitation last hour: 0.12 inches
Temperature: 68.0 F (20.0 C)
Dew Point: 66.0 F (18.9 C)
Relative Humidity: 93%
Pressure (altimeter): 29.56 in. Hg (1001 hPa)
ob: KFWA 200720Z 10004KT 3SM -RA BR BKN004 BKN023 OVC050 20/19 A2956 RMK AO2 RAE03B05 P0012 T02000189
cycle: 7

Station Type Date Time Source
KFWA TAF 2019/06/20 06:27 UTC NOAA

TAF KFWA 200525Z 2006/2106 12004KT 6SM -RA BR BKN007 OVC035
FM200730 06004KT 4SM SHRA OVC006
FM201600 36010KT 5SM SHRA BR OVC008
FM202100 34010KT P6SM OVC012
FM210100 34007KT P6SM BKN020

Example: see airport list